Time;durP1;ratioP1;P1;durP2;ratioP2;P2;SDS_P1;SDS_P2;PMS_P1;PMS_P2;Temp;Humidity;BMP_temperature;BMP_pressure;BME280_temperature;BME280_humidity;BME280_pressure;Samples;Min_cycle;Max_cycle;Signal;HPM_P1;HPM_P2
2024/01/25 00:03:17;;;;;;;80.63;53.90;;;;;;;22.16;51.83;101553.22;31496144;28;20227;-64
2024/01/25 00:18:20;;;;;;;66.80;43.92;;;;;;;22.27;51.59;101551.72;31519186;28;20665;-69
2024/01/25 00:33:23;;;;;;;59.63;41.72;;;;;;;22.19;51.66;101566.72;31600053;28;20293;-60
2024/01/25 00:48:27;;;;;;;51.53;35.20;;;;;;;22.15;51.59;101569.38;31605256;28;21191;-68
2024/01/25 01:03:31;;;;;;;49.20;32.97;;;;;;;22.10;51.98;101561.88;31511928;28;20221;-63
2024/01/25 01:18:34;;;;;;;43.17;27.27;;;;;;;22.05;51.89;101559.19;31513650;28;20258;-57
2024/01/25 01:33:37;;;;;;;39.45;25.90;;;;;;;22.02;51.91;101578.84;31550525;28;20594;-68
2024/01/25 01:48:41;;;;;;;34.35;22.73;;;;;;;21.97;51.94;101585.47;31524222;28;20327;-60
2024/01/25 02:03:44;;;;;;;30.50;20.73;;;;;;;21.91;51.43;101603.81;31434259;28;20281;-58
2024/01/25 02:18:48;;;;;;;26.60;18.13;;;;;;;21.86;51.98;101629.44;31503663;28;20256;-69
2024/01/25 02:33:51;;;;;;;23.05;15.15;;;;;;;21.84;51.57;101628.94;31556051;28;20237;-57
2024/01/25 02:48:54;;;;;;;23.33;14.98;;;;;;;21.79;51.80;101640.44;31542789;28;20222;-58
2024/01/25 03:03:57;;;;;;;18.35;13.43;;;;;;;21.77;51.69;101647.59;31499431;28;20641;-62
2024/01/25 03:19:00;;;;;;;18.45;11.95;;;;;;;22.04;50.98;101664.41;31499515;28;20225;-65
2024/01/25 03:34:03;;;;;;;14.55;9.98;;;;;;;22.32;50.44;101680.03;31499162;28;20234;-66
2024/01/25 03:49:06;;;;;;;15.25;9.68;;;;;;;22.45;49.71;101670.56;31514659;28;20219;-67
2024/01/25 04:04:10;;;;;;;12.00;8.40;;;;;;;22.46;49.33;101699.75;31521670;28;20229;-58
2024/01/25 04:19:13;;;;;;;12.75;8.07;;;;;;;22.42;49.43;101699.59;31585468;28;20260;-69
2024/01/25 04:34:16;;;;;;;11.95;6.85;;;;;;;22.41;49.47;101702.75;31557141;28;20217;-68
2024/01/25 04:49:19;;;;;;;10.57;5.90;;;;;;;22.37;49.31;101685.53;31640852;28;20614;-62
2024/01/25 05:04:22;;;;;;;11.63;6.65;;;;;;;22.32;49.21;101710.41;31591472;28;20585;-60
2024/01/25 05:19:26;;;;;;;82.80;55.17;;;;;;;22.77;48.67;101700.53;31531906;28;20509;-58
2024/01/25 05:34:29;;;;;;;84.22;58.60;;;;;;;22.90;48.36;101709.22;31588413;28;20468;-66
2024/01/25 05:49:32;;;;;;;92.30;59.25;;;;;;;22.96;49.36;101707.91;31569968;28;20222;-66
2024/01/25 06:04:35;;;;;;;89.47;61.33;;;;;;;23.03;48.59;101713.91;31516421;28;20318;-69
2024/01/25 06:19:38;;;;;;;77.10;51.83;;;;;;;22.95;48.45;101717.59;31472971;28;20235;-60
2024/01/25 06:34:41;;;;;;;69.10;47.47;;;;;;;22.82;48.87;101735.63;31441962;28;20563;-66
2024/01/25 06:49:47;;;;;;;58.78;40.85;;;;;;;22.70;48.94;101739.91;31483032;28;20331;-64
2024/01/25 07:04:52;;;;;;;51.05;36.58;;;;;;;22.61;48.61;101777.91;31473458;28;20559;-63
2024/01/25 07:19:55;;;;;;;49.08;33.42;;;;;;;22.52;49.04;101794.06;31466481;28;20709;-59
2024/01/25 07:34:58;;;;;;;42.88;29.77;;;;;;;22.42;48.98;101795.19;31490738;28;20603;-64
2024/01/25 07:50:01;;;;;;;39.75;26.65;;;;;;;22.31;49.20;101799.50;31495222;28;20218;-66
2024/01/25 08:05:05;;;;;;;34.35;23.20;;;;;;;22.20;49.56;101809.44;31518449;28;20650;-61
2024/01/25 08:20:09;;;;;;;32.80;21.42;;;;;;;22.13;49.25;101814.72;31548297;28;20292;-63
2024/01/25 08:35:12;;;;;;;30.90;19.20;;;;;;;22.05;49.28;101808.69;31568039;28;20550;-64
2024/01/25 08:50:15;;;;;;;25.05;18.05;;;;;;;21.99;49.66;101815.63;31532915;28;20258;-64
2024/01/25 09:05:18;;;;;;;23.45;16.02;;;;;;;21.92;49.78;101806.72;31511514;28;20307;-58
2024/01/25 09:20:21;;;;;;;21.40;14.18;;;;;;;21.89;49.92;101818.69;31553958;28;20233;-70
2024/01/25 09:35:24;;;;;;;20.63;12.82;;;;;;;21.85;50.14;101814.81;31602389;28;20206;-66
2024/01/25 09:50:33;;;;;;;19.17;12.38;;;;;;;21.81;50.08;101835.66;31525746;28;20262;-67
2024/01/25 10:05:36;;;;;;;16.80;10.38;;;;;;;21.78;50.42;101858.97;31554849;28;20562;-65
2024/01/25 10:20:40;;;;;;;12.52;8.07;;;;;;;21.77;50.38;101858.13;31621021;28;20273;-66
2024/01/25 10:35:45;;;;;;;10.68;7.32;;;;;;;21.75;50.46;101837.75;31570463;28;20221;-66
2024/01/25 10:50:49;;;;;;;10.20;5.93;;;;;;;21.72;50.56;101830.72;31600954;28;20309;-62
2024/01/25 11:05:52;;;;;;;10.20;5.90;;;;;;;21.66;50.30;101805.69;31524748;28;20219;-66
2024/01/25 11:21:01;;;;;;;7.95;4.72;;;;;;;21.63;50.49;101790.16;31567436;28;20685;-66
2024/01/25 11:36:04;;;;;;;7.20;3.92;;;;;;;21.65;50.28;101776.53;31488910;28;20203;-58
2024/01/25 11:51:07;;;;;;;6.57;3.63;;;;;;;21.68;50.37;101749.53;31494196;28;20671;-60
2024/01/25 12:06:10;;;;;;;6.40;3.50;;;;;;;21.66;50.06;101737.69;31518326;28;20657;-61
2024/01/25 12:21:14;;;;;;;5.57;2.97;;;;;;;21.64;50.05;101715.34;31498469;28;20219;-59
2024/01/25 12:36:17;;;;;;;6.20;2.67;;;;;;;21.66;50.06;101700.88;31528858;28;20214;-58
2024/01/25 12:51:22;;;;;;;4.53;2.50;;;;;;;21.61;50.33;101700.97;31540939;28;20227;-56
2024/01/25 13:06:25;;;;;;;5.55;2.05;;;;;;;21.62;50.26;101714.00;31502873;28;20217;-73
2024/01/25 13:21:28;;;;;;;3.38;1.92;;;;;;;21.57;50.36;101677.28;31526463;28;20340;-66
2024/01/25 13:36:31;;;;;;;4.47;2.05;;;;;;;21.54;49.92;101694.94;31522391;28;20276;-75
2024/01/25 13:51:35;;;;;;;3.20;1.40;;;;;;;21.55;50.04;101663.44;31498790;28;20238;-59
2024/01/25 14:06:38;;;;;;;2.33;1.30;;;;;;;21.53;49.92;101654.47;31574626;28;20251;-69
2024/01/25 14:21:41;;;;;;;4.38;1.77;;;;;;;21.84;49.59;101633.75;31543865;28;20227;-64
2024/01/25 14:36:44;;;;;;;2.78;1.33;;;;;;;22.27;48.37;101625.47;31507829;28;20474;-69
2024/01/25 14:51:47;;;;;;;4.05;1.27;;;;;;;22.35;47.71;101596.28;31519371;28;20654;-72
2024/01/25 15:06:50;;;;;;;10.95;1.67;;;;;;;22.46;47.32;101574.94;31488486;28;20222;-58
2024/01/25 15:21:54;;;;;;;69.38;42.75;;;;;;;22.64;47.88;101578.63;31477027;28;20234;-62
2024/01/25 15:36:57;;;;;;;90.90;56.03;;;;;;;23.25;46.84;101556.69;31228240;28;20231;-62
2024/01/25 15:52:00;;;;;;;176.98;110.95;;;;;;;23.39;46.79;101555.31;31246520;28;20507;-62
2024/01/25 16:07:03;;;;;;;140.88;87.00;;;;;;;23.20;47.39;101532.16;31247358;28;20520;-66
2024/01/25 16:22:07;;;;;;;94.13;57.78;;;;;;;23.04;46.29;101540.38;31243033;28;20599;-66
2024/01/25 16:37:10;;;;;;;72.95;44.63;;;;;;;23.07;46.94;101527.53;31257400;28;20691;-60
2024/01/25 16:52:13;;;;;;;173.95;107.32;;;;;;;23.10;47.70;101524.03;31249040;28;20224;-67
2024/01/25 17:07:16;;;;;;;279.02;172.27;;;;;;;23.09;48.29;101520.34;31255316;28;20278;-59
2024/01/25 17:22:19;;;;;;;307.20;194.90;;;;;;;23.04;48.18;101511.16;31250322;28;20509;-64
2024/01/25 17:37:22;;;;;;;278.05;178.82;;;;;;;23.10;48.44;101499.28;31243080;28;20196;-58
2024/01/25 17:52:25;;;;;;;232.52;145.77;;;;;;;23.12;48.11;101484.72;31249055;28;20547;-66
2024/01/25 18:07:29;;;;;;;324.92;219.32;;;;;;;23.12;47.77;101490.41;31235749;28;20232;-64
2024/01/25 18:22:32;;;;;;;286.33;185.90;;;;;;;23.13;47.75;101475.03;31228145;28;20685;-62
2024/01/25 18:37:35;;;;;;;389.25;271.50;;;;;;;23.13;47.94;101475.03;31256500;28;20199;-63
2024/01/25 18:52:38;;;;;;;346.48;236.20;;;;;;;23.19;48.06;101485.06;31263771;28;20232;-65
2024/01/25 19:07:42;;;;;;;420.00;300.10;;;;;;;23.21;48.15;101477.03;31269361;28;20493;-66
2024/01/25 19:22:45;;;;;;;372.63;262.65;;;;;;;23.23;48.43;101451.97;31236172;28;20228;-64
2024/01/25 19:37:49;;;;;;;412.77;296.63;;;;;;;23.25;48.19;101443.09;31225444;28;20372;-64
2024/01/25 19:52:53;;;;;;;381.25;278.35;;;;;;;23.28;48.44;101446.09;31212280;28;20234;-60
2024/01/25 20:07:57;;;;;;;499.13;366.58;;;;;;;23.26;48.84;101434.22;31204563;28;20266;-64
2024/01/25 20:23:00;;;;;;;586.78;442.13;;;;;;;23.26;49.82;101414.34;31223139;28;20633;-63
2024/01/25 20:38:03;;;;;;;521.90;386.10;;;;;;;23.23;49.76;101395.16;31252618;28;20200;-65
2024/01/25 20:53:06;;;;;;;557.38;429.30;;;;;;;23.17;50.33;101379.47;31252061;28;20306;-65
2024/01/25 21:08:11;;;;;;;493.67;373.00;;;;;;;23.13;51.04;101387.00;31257980;28;20238;-60
2024/01/25 21:23:14;;;;;;;514.53;388.15;;;;;;;23.00;50.68;101368.19;31248610;28;20632;-61
2024/01/25 21:38:18;;;;;;;464.00;350.60;;;;;;;23.26;50.51;101349.03;31251076;28;20528;-60
2024/01/25 21:53:21;;;;;;;406.05;306.48;;;;;;;23.30;50.42;101332.97;31251966;28;20220;-59
2024/01/25 22:08:24;;;;;;;355.50;270.13;;;;;;;23.28;51.00;101315.44;31256487;28;20221;-60
2024/01/25 22:23:29;;;;;;;312.73;232.38;;;;;;;23.26;51.47;101326.28;31254463;28;20235;-60
2024/01/25 22:38:33;;;;;;;269.15;201.45;;;;;;;23.23;51.40;101332.69;31254860;28;20216;-59
2024/01/25 22:53:36;;;;;;;241.93;173.75;;;;;;;23.20;52.00;101316.34;31251992;28;20238;-58
2024/01/25 23:08:40;;;;;;;210.45;150.35;;;;;;;23.18;51.66;101304.47;31237067;28;20224;-60
2024/01/25 23:23:43;;;;;;;186.02;130.82;;;;;;;23.15;51.13;101319.34;31244842;28;20224;-61
2024/01/25 23:38:46;;;;;;;160.68;113.63;;;;;;;23.14;51.13;101300.66;31245156;28;20567;-62
2024/01/25 23:53:49;;;;;;;140.05;98.45;;;;;;;23.12;51.15;101288.78;31247098;28;20228;-59
